createdAt,value
2022-09-20T00:06:56.439Z,18.33
2022-09-20T00:09:22.776Z,17.47
2022-09-20T00:11:48.998Z,20.87
2022-09-20T00:14:15.144Z,19.73
2022-09-20T00:16:41.629Z,19.13
2022-09-20T00:19:09.082Z,22.30
2022-09-20T00:21:37.221Z,20.93
2022-09-20T00:39:47.513Z,21.17
2022-09-20T00:42:14.985Z,19.13
2022-09-20T00:44:49.103Z,19.30
2022-09-20T00:47:36.782Z,22.70
2022-09-20T00:50:27.988Z,18.73
2022-09-20T00:53:01.618Z,21.33
2022-09-20T01:03:26.327Z,19.60
2022-09-20T01:05:53.977Z,22.50
2022-09-20T01:08:23.780Z,23.00
2022-09-20T01:10:50.648Z,21.63
2022-09-20T01:13:17.001Z,20.43
2022-09-20T01:15:45.521Z,21.37
2022-09-20T01:18:12.692Z,19.87
2022-09-20T01:20:41.605Z,20.73
2022-09-20T01:28:35.254Z,21.67
2022-09-20T01:31:04.565Z,20.40
2022-09-20T01:33:39.810Z,20.80
2022-09-20T01:36:07.864Z,19.83
2022-09-20T01:38:39.776Z,21.50
2022-09-20T01:41:11.661Z,24.83
2022-09-20T01:43:51.370Z,20.57
2022-09-20T02:02:01.079Z,17.77
2022-09-20T02:04:45.407Z,21.40
2022-09-20T02:07:30.221Z,20.23
2022-09-20T02:10:34.389Z,23.27
2022-09-20T02:13:06.308Z,19.17
2022-09-20T02:15:51.066Z,19.13
2022-09-20T02:23:38.666Z,21.67
2022-09-20T02:26:24.951Z,20.30
2022-09-20T02:29:37.475Z,26.00
2022-09-20T02:32:32.365Z,18.87
2022-09-20T02:35:08.212Z,20.20
2022-09-20T02:37:43.094Z,19.73
2022-09-20T02:40:30.361Z,24.30
2022-09-20T02:59:27.996Z,18.57
2022-09-20T03:02:29.758Z,18.20
2022-09-20T03:05:10.677Z,20.37
2022-09-20T03:08:03.384Z,21.03
2022-09-20T03:10:55.506Z,19.90
2022-09-20T03:17:35.826Z,19.53
2022-09-20T03:20:20.281Z,21.87
2022-09-20T03:23:25.320Z,21.40
2022-09-20T03:25:57.511Z,22.73
2022-09-20T03:29:07.966Z,21.83
2022-09-20T03:35:49.953Z,21.47
2022-09-20T03:38:38.456Z,20.37
2022-09-20T03:41:51.122Z,21.80
2022-09-20T03:44:36.311Z,17.93
2022-09-20T03:47:23.121Z,18.37
2022-09-20T03:50:12.227Z,19.50
2022-09-20T03:59:44.261Z,19.30
2022-09-20T04:02:40.112Z,16.87
2022-09-20T04:05:32.059Z,16.60
2022-09-20T04:08:16.427Z,19.23
2022-09-20T04:11:07.998Z,20.93
2022-09-20T04:13:35.976Z,20.97
2022-09-20T04:16:35.774Z,15.73
2022-09-20T04:24:52.311Z,19.33
2022-09-20T04:27:42.299Z,18.83
2022-09-20T04:30:27.026Z,17.63
2022-09-20T04:32:57.741Z,15.23
2022-09-20T04:36:14.267Z,15.93
2022-09-20T04:38:41.032Z,15.90
2022-09-20T05:00:12.469Z,15.43
2022-09-20T05:03:16.359Z,16.57
2022-09-20T05:06:04.016Z,19.33
2022-09-20T05:08:53.266Z,18.50
2022-09-20T05:11:51.441Z,19.03
2022-09-20T05:22:00.740Z,14.53
2022-09-20T05:25:02.581Z,12.03
2022-09-20T05:27:53.462Z,14.03
2022-09-20T05:30:38.661Z,15.47
2022-09-20T05:33:24.144Z,14.57
2022-09-20T05:36:13.967Z,14.93
2022-09-20T06:08:25.640Z,14.30
2022-09-20T06:11:02.962Z,12.13
2022-09-20T06:14:01.348Z,16.70
2022-09-20T06:16:37.097Z,14.27
2022-09-20T06:19:20.830Z,14.73
2022-09-20T06:21:52.948Z,16.10
2022-09-20T07:21:31.821Z,15.27
2022-09-20T07:23:58.243Z,18.47
2022-09-20T07:26:27.658Z,17.27
2022-09-20T07:28:55.208Z,20.13
2022-09-20T07:31:24.252Z,19.70
2022-09-20T07:33:52.793Z,16.40
2022-09-20T07:36:19.213Z,15.77
2022-09-20T07:44:16.682Z,16.43
2022-09-20T07:46:44.829Z,15.17
2022-09-20T07:49:11.565Z,17.23
2022-09-20T07:51:37.845Z,14.17
2022-09-20T07:54:04.261Z,18.03
2022-09-20T07:56:30.528Z,15.70
2022-09-20T07:58:56.858Z,16.10
2022-09-20T08:06:24.351Z,14.43
2022-09-20T08:08:50.989Z,15.87
2022-09-20T08:11:20.998Z,13.70
2022-09-20T08:14:06.918Z,17.47
2022-09-20T08:16:43.620Z,13.83
2022-09-20T08:19:15.550Z,14.50
2022-09-20T08:22:02.154Z,17.03
2022-09-20T08:29:55.497Z,15.20
2022-09-20T08:32:21.912Z,17.07
2022-09-20T08:34:49.590Z,16.60
2022-09-20T08:37:15.892Z,15.10
2022-09-20T08:39:58.819Z,14.43
2022-09-20T08:42:37.861Z,12.53
2022-09-20T08:45:35.565Z,13.37
2022-09-20T08:53:14.029Z,13.50
2022-09-20T08:55:42.628Z,13.33
2022-09-20T08:58:11.528Z,13.17
2022-09-20T09:00:39.707Z,13.47
2022-09-20T09:03:12.484Z,10.70
2022-09-20T09:05:47.836Z,13.67
2022-09-20T09:08:27.912Z,15.63
2022-09-20T09:15:42.965Z,13.63
2022-09-20T09:18:13.079Z,12.47
2022-09-20T09:20:42.641Z,13.73
2022-09-20T09:23:25.456Z,16.17
2022-09-20T09:25:54.200Z,13.83
2022-09-20T09:28:24.849Z,18.77
2022-09-20T09:30:51.182Z,17.73
2022-09-20T09:38:37.506Z,17.17
2022-09-20T09:41:32.673Z,17.90
2022-09-20T09:44:51.814Z,17.93
2022-09-20T09:48:12.860Z,13.60
2022-09-20T09:51:29.105Z,17.30
2022-09-20T10:31:35.491Z,15.87
2022-09-20T10:41:26.127Z,10.73
2022-09-20T10:44:31.276Z,11.13
2022-09-20T10:47:34.241Z,10.50
2022-09-20T10:50:06.653Z,10.10
2022-09-20T10:58:41.683Z,10.73
2022-09-20T11:01:31.844Z,10.77
2022-09-20T11:04:55.276Z,11.93
2022-09-20T11:07:39.134Z,11.37
2022-09-20T11:10:49.391Z,12.53
2022-09-20T11:17:11.565Z,10.20
2022-09-20T11:20:07.895Z,10.23
2022-09-20T11:22:51.784Z,10.70
2022-09-20T11:25:46.609Z,9.43
2022-09-20T11:28:36.820Z,9.70
2022-09-20T12:49:54.403Z,3.90
2022-09-20T12:52:46.202Z,4.73
2022-09-20T12:55:25.548Z,5.10
2022-09-20T12:58:06.761Z,8.43
2022-09-20T13:00:44.269Z,5.60
2022-09-20T13:03:11.681Z,9.73
2022-09-20T13:50:26.352Z,4.83
2022-09-20T13:52:55.766Z,5.90
2022-09-20T13:55:32.796Z,4.40
2022-09-20T13:58:22.909Z,5.50
2022-09-20T14:01:02.561Z,4.90
2022-09-20T22:01:20.681Z,6.80
2022-09-20T22:19:19.732Z,10.20
2022-09-20T22:22:00.474Z,11.43
2022-09-20T22:24:33.468Z,11.00
2022-09-20T22:27:00.077Z,8.97
2022-09-20T22:29:28.050Z,8.83
2022-09-20T22:31:54.331Z,8.83
2022-09-20T22:34:22.864Z,8.37
2022-09-20T22:36:49.557Z,9.57
2022-09-20T22:39:16.431Z,8.50
2022-09-20T22:58:59.547Z,8.57
2022-09-20T23:01:55.293Z,8.87
2022-09-20T23:04:22.835Z,10.57
2022-09-20T23:06:54.030Z,12.77
2022-09-20T23:09:24.622Z,8.97
2022-09-20T23:11:51.421Z,9.60
2022-09-20T23:14:19.886Z,10.70
2022-09-20T23:17:01.479Z,9.17
2022-09-20T23:39:52.760Z,9.47
2022-09-20T23:42:23.160Z,14.90
2022-09-20T23:44:49.454Z,9.57
2022-09-20T23:47:15.934Z,10.83
2022-09-20T23:49:42.147Z,10.03
2022-09-20T23:52:08.407Z,9.30
2022-09-20T23:54:34.897Z,8.57
2022-09-20T23:57:01.231Z,9.47
2022-09-20T23:59:27.627Z,8.53
